createdAt,value
2022-10-22T00:01:02.549Z,9.89
2022-10-22T00:03:29.186Z,9.86
2022-10-22T00:05:55.842Z,9.88
2022-10-22T00:08:22.479Z,9.97
2022-10-22T00:10:49.234Z,9.98
2022-10-22T00:13:16.176Z,9.98
2022-10-22T00:15:42.745Z,10.03
2022-10-22T00:18:09.322Z,10.03
2022-10-22T00:20:35.874Z,9.94
2022-10-22T00:23:02.480Z,9.90
2022-10-22T00:25:29.147Z,9.94
2022-10-22T00:27:55.717Z,9.92
2022-10-22T00:30:22.357Z,9.90
2022-10-22T00:32:48.922Z,9.90
2022-10-22T00:35:15.558Z,9.89
2022-10-22T00:37:42.145Z,9.87
2022-10-22T00:40:09.660Z,9.86
2022-10-22T00:42:36.311Z,9.83
2022-10-22T00:45:02.857Z,9.78
2022-10-22T00:47:37.043Z,9.83
2022-10-22T00:50:06.920Z,9.84
2022-10-22T00:52:33.792Z,9.84
2022-10-22T00:55:01.197Z,9.83
2022-10-22T00:57:28.192Z,9.81
2022-10-22T00:59:56.677Z,9.78
2022-10-22T01:02:23.718Z,9.76
2022-10-22T01:04:50.311Z,9.76
2022-10-22T01:07:20.264Z,9.75
2022-10-22T01:10:11.253Z,9.73
2022-10-22T01:12:49.656Z,9.68
2022-10-22T01:15:53.857Z,9.68
2022-10-22T01:18:27.489Z,9.61
2022-10-22T01:21:08.132Z,9.56
2022-10-22T01:23:46.696Z,9.50
2022-10-22T01:26:25.788Z,9.45
2022-10-22T01:29:13.206Z,9.38
2022-10-22T01:31:45.149Z,9.34
2022-10-22T01:34:16.052Z,9.34
2022-10-22T01:36:43.898Z,9.31
2022-10-22T01:39:12.560Z,9.29
2022-10-22T01:41:40.286Z,9.23
2022-10-22T01:44:06.844Z,9.23
2022-10-22T01:46:33.534Z,9.22
2022-10-22T01:49:12.766Z,9.19
2022-10-22T01:52:00.905Z,9.20
2022-10-22T01:54:56.549Z,9.16
2022-10-22T01:58:04.779Z,9.11
2022-10-22T02:00:31.728Z,9.05
2022-10-22T02:03:12.202Z,8.98
2022-10-22T02:05:49.378Z,8.96
2022-10-22T02:08:20.584Z,8.92
2022-10-22T02:10:48.592Z,8.93
2022-10-22T02:13:22.939Z,8.84
2022-10-22T02:15:51.607Z,8.81
2022-10-22T02:18:22.266Z,8.78
2022-10-22T02:20:49.604Z,8.77
2022-10-22T02:23:16.601Z,8.75
2022-10-22T02:25:49.402Z,8.76
2022-10-22T02:28:34.764Z,8.71
2022-10-22T02:31:10.625Z,8.84
2022-10-22T02:33:46.091Z,8.79
2022-10-22T02:36:14.818Z,8.70
2022-10-22T02:38:42.139Z,8.71
2022-10-22T02:41:09.459Z,8.64
2022-10-22T02:43:42.673Z,8.65
2022-10-22T02:46:11.015Z,8.68
2022-10-22T02:48:37.816Z,8.66
2022-10-22T02:51:04.443Z,8.65
2022-10-22T02:53:31.253Z,8.60
2022-10-22T02:55:58.286Z,8.59
2022-10-22T02:58:24.922Z,8.59
2022-10-22T03:00:51.792Z,8.54
2022-10-22T03:03:18.577Z,8.54
2022-10-22T03:05:45.192Z,8.49
2022-10-22T03:08:11.825Z,8.47
2022-10-22T03:10:38.375Z,8.49
2022-10-22T03:13:05.009Z,8.50
2022-10-22T03:15:31.554Z,8.48
2022-10-22T03:17:58.130Z,8.45
2022-10-22T03:20:24.693Z,8.46
2022-10-22T03:22:51.409Z,8.43
2022-10-22T03:25:22.177Z,8.39
2022-10-22T03:27:51.392Z,8.37
2022-10-22T03:30:18.798Z,8.33
2022-10-22T03:32:45.546Z,8.35
2022-10-22T03:35:12.115Z,8.33
2022-10-22T03:37:39.810Z,8.35
2022-10-22T03:40:08.360Z,8.33
2022-10-22T03:42:35.309Z,8.32
2022-10-22T03:45:01.884Z,8.30
2022-10-22T03:47:28.633Z,8.38
2022-10-22T03:49:55.206Z,8.34
2022-10-22T03:52:21.830Z,8.32
2022-10-22T03:54:48.395Z,8.28
2022-10-22T03:57:15.067Z,8.24
2022-10-22T03:59:43.797Z,8.26
2022-10-22T04:02:12.704Z,8.23
2022-10-22T04:04:39.342Z,8.19
2022-10-22T04:07:07.211Z,8.17
2022-10-22T04:09:34.967Z,8.15
2022-10-22T04:12:02.086Z,8.17
2022-10-22T04:14:28.687Z,8.12
2022-10-22T04:16:55.306Z,8.11
2022-10-22T04:19:22.057Z,8.10
2022-10-22T04:21:48.614Z,8.05
2022-10-22T04:24:15.538Z,8.07
2022-10-22T04:26:42.369Z,8.07
2022-10-22T04:29:11.981Z,8.10
2022-10-22T04:31:41.885Z,8.11
2022-10-22T04:34:08.540Z,8.12
2022-10-22T04:36:35.174Z,8.12
2022-10-22T04:39:02.505Z,8.08
2022-10-22T04:41:31.855Z,8.09
2022-10-22T04:43:59.529Z,8.06
2022-10-22T04:46:28.632Z,8.06
2022-10-22T04:48:55.522Z,8.05
2022-10-22T04:51:24.082Z,7.99
2022-10-22T04:53:51.398Z,7.98
2022-10-22T04:56:21.789Z,7.94
2022-10-22T04:58:55.830Z,7.93
2022-10-22T05:01:27.812Z,7.96
2022-10-22T05:03:56.042Z,7.92
2022-10-22T05:06:23.885Z,7.93
2022-10-22T05:09:00.948Z,7.93
2022-10-22T05:11:38.355Z,7.93
2022-10-22T05:14:06.345Z,7.90
2022-10-22T05:16:34.370Z,7.89
2022-10-22T05:19:02.726Z,7.91
2022-10-22T05:21:29.558Z,7.97
2022-10-22T05:23:59.939Z,8.02
2022-10-22T05:26:28.448Z,8.06
2022-10-22T05:28:55.265Z,8.06
2022-10-22T05:31:22.001Z,8.03
2022-10-22T05:33:48.935Z,8.00
2022-10-22T05:36:18.685Z,8.00
2022-10-22T05:38:45.762Z,8.00
2022-10-22T05:41:23.674Z,8.04
2022-10-22T05:43:51.499Z,8.20
2022-10-22T05:46:22.712Z,8.37
2022-10-22T05:48:59.758Z,8.33
2022-10-22T05:51:28.470Z,8.32
2022-10-22T05:54:04.006Z,8.38
2022-10-22T05:56:32.037Z,8.39
2022-10-22T05:58:59.213Z,8.43
2022-10-22T06:01:31.575Z,8.48
2022-10-22T06:04:04.290Z,8.51
2022-10-22T06:06:35.212Z,8.57
2022-10-22T06:09:22.266Z,8.63
2022-10-22T06:11:49.360Z,8.70
2022-10-22T06:14:16.883Z,8.78
2022-10-22T06:16:43.687Z,8.87
2022-10-22T06:19:12.788Z,8.95
2022-10-22T06:21:39.674Z,9.07
2022-10-22T06:24:06.845Z,9.18
2022-10-22T06:26:33.515Z,9.25
2022-10-22T06:29:00.368Z,9.31
2022-10-22T06:31:27.349Z,9.32
2022-10-22T06:33:54.159Z,9.35
2022-10-22T06:36:23.050Z,9.38
2022-10-22T06:38:54.290Z,9.45
2022-10-22T06:41:24.296Z,9.52
2022-10-22T06:43:54.163Z,9.59
2022-10-22T06:46:22.172Z,9.69
2022-10-22T06:48:50.940Z,9.71
2022-10-22T06:51:18.259Z,9.81
2022-10-22T06:53:45.117Z,9.91
2022-10-22T06:56:14.426Z,10.00
2022-10-22T06:58:41.594Z,10.08
2022-10-22T07:01:10.804Z,10.19
2022-10-22T07:03:38.386Z,10.23
2022-10-22T07:06:07.688Z,10.34
2022-10-22T07:08:34.709Z,10.49
2022-10-22T07:11:19.068Z,10.54
2022-10-22T07:13:46.105Z,10.61
2022-10-22T07:16:13.081Z,10.61
2022-10-22T07:18:41.502Z,10.57
2022-10-22T07:21:09.961Z,10.56
2022-10-22T07:23:36.985Z,10.58
2022-10-22T07:26:04.527Z,10.58
2022-10-22T07:28:32.490Z,10.65
2022-10-22T07:31:00.018Z,10.74
2022-10-22T07:33:27.026Z,10.91
2022-10-22T07:36:04.937Z,11.00
2022-10-22T07:38:31.971Z,11.11
2022-10-22T07:40:59.325Z,11.09
2022-10-22T07:43:26.583Z,11.10
2022-10-22T07:45:53.212Z,11.12
2022-10-22T07:48:19.762Z,11.09
2022-10-22T07:50:46.338Z,11.12
2022-10-22T07:53:12.989Z,11.14
2022-10-22T07:55:39.598Z,11.14
2022-10-22T07:58:06.294Z,11.14
2022-10-22T08:00:33.034Z,11.23
2022-10-22T08:03:00.000Z,11.25
2022-10-22T08:05:26.567Z,11.20
2022-10-22T08:07:53.210Z,11.22
2022-10-22T08:10:19.882Z,11.13
2022-10-22T08:12:47.680Z,11.14
2022-10-22T08:15:15.068Z,11.11
2022-10-22T08:17:42.055Z,11.12
2022-10-22T08:20:09.361Z,11.18
2022-10-22T08:22:36.008Z,11.28
2022-10-22T08:25:02.694Z,11.38
2022-10-22T08:27:29.275Z,11.35
2022-10-22T08:29:55.844Z,11.38
2022-10-22T08:32:22.522Z,11.37
2022-10-22T08:34:49.274Z,11.43
2022-10-22T08:37:17.124Z,11.47
2022-10-22T08:39:44.571Z,11.52
2022-10-22T08:42:33.049Z,11.51
2022-10-22T08:45:12.903Z,11.53
2022-10-22T08:48:07.690Z,11.55
2022-10-22T08:50:41.753Z,11.68
2022-10-22T08:53:15.385Z,11.72
2022-10-22T08:55:42.543Z,11.79
2022-10-22T08:58:20.196Z,11.81
2022-10-22T09:00:56.527Z,11.83
2022-10-22T09:03:36.090Z,11.91
2022-10-22T09:06:27.426Z,12.04
2022-10-22T09:08:56.510Z,12.17
2022-10-22T09:11:37.037Z,12.27
2022-10-22T09:14:05.092Z,12.46
2022-10-22T09:17:09.726Z,12.56
2022-10-22T09:20:09.818Z,12.76
2022-10-22T09:22:48.310Z,12.88
2022-10-22T09:25:27.345Z,12.98
2022-10-22T09:27:58.405Z,13.03
2022-10-22T09:30:31.076Z,13.18
2022-10-22T09:33:10.687Z,13.23
2022-10-22T09:35:53.666Z,13.19
2022-10-22T09:38:21.825Z,13.10
2022-10-22T09:40:51.338Z,13.10
2022-10-22T09:43:18.637Z,13.10
2022-10-22T09:45:46.386Z,13.25
2022-10-22T09:48:21.463Z,13.32
2022-10-22T09:50:50.167Z,13.41
2022-10-22T09:53:22.673Z,13.43
2022-10-22T09:55:53.487Z,13.39
2022-10-22T09:58:20.828Z,13.32
2022-10-22T10:00:57.655Z,13.28
2022-10-22T10:03:30.990Z,13.26
2022-10-22T10:06:03.130Z,13.26
2022-10-22T10:08:32.848Z,13.21
2022-10-22T10:11:05.790Z,13.24
2022-10-22T10:14:02.261Z,13.19
2022-10-22T10:16:53.678Z,13.15
2022-10-22T10:19:35.756Z,13.12
2022-10-22T10:22:53.058Z,13.11
2022-10-22T10:25:46.379Z,13.12
2022-10-22T10:28:27.820Z,13.11
2022-10-22T10:31:03.094Z,13.14
2022-10-22T10:33:59.908Z,13.09
2022-10-22T10:36:38.368Z,13.05
2022-10-22T10:39:37.401Z,13.04
2022-10-22T10:42:15.228Z,13.09
2022-10-22T10:45:11.766Z,13.18
2022-10-22T10:47:53.487Z,13.26
2022-10-22T10:50:23.005Z,13.23
2022-10-22T10:53:10.586Z,13.20
2022-10-22T10:55:59.096Z,13.20
2022-10-22T10:58:34.327Z,13.24
2022-10-22T11:01:20.350Z,13.34
2022-10-22T11:03:46.999Z,13.39
2022-10-22T11:06:20.508Z,13.44
2022-10-22T11:08:57.855Z,13.49
2022-10-22T11:11:36.598Z,13.61
2022-10-22T11:14:30.052Z,13.70
2022-10-22T11:17:04.118Z,13.86
2022-10-22T11:19:50.187Z,14.07
2022-10-22T11:22:26.978Z,14.18
2022-10-22T11:25:15.607Z,14.30
2022-10-22T11:28:05.484Z,14.44
2022-10-22T11:30:36.270Z,14.42
2022-10-22T11:33:11.758Z,14.37
2022-10-22T11:35:42.443Z,14.39
2022-10-22T11:38:15.147Z,14.39
2022-10-22T11:40:52.649Z,14.42
2022-10-22T11:43:30.653Z,14.48
2022-10-22T11:46:29.198Z,14.46
2022-10-22T11:49:16.501Z,14.38
2022-10-22T11:51:45.122Z,14.39
2022-10-22T11:54:53.648Z,14.35
2022-10-22T11:57:29.020Z,14.38
2022-10-22T12:00:00.466Z,14.40
2022-10-22T12:02:30.708Z,14.47
2022-10-22T12:05:22.160Z,14.36
2022-10-22T12:07:54.500Z,14.34
2022-10-22T12:10:25.724Z,14.31
2022-10-22T12:12:57.002Z,14.25
2022-10-22T12:15:27.138Z,14.22
2022-10-22T12:18:01.186Z,14.21
2022-10-22T12:20:28.445Z,14.15
2022-10-22T12:22:57.323Z,14.07
2022-10-22T12:25:26.181Z,14.01
2022-10-22T12:27:55.559Z,13.92
2022-10-22T12:30:25.079Z,13.86
2022-10-22T12:32:56.854Z,13.78
2022-10-22T12:35:32.162Z,13.72
2022-10-22T12:38:02.010Z,13.68
2022-10-22T12:40:42.295Z,13.72
2022-10-22T12:43:15.542Z,13.68
2022-10-22T12:45:45.394Z,13.70
2022-10-22T12:48:19.440Z,13.73
2022-10-22T12:50:52.715Z,13.75
2022-10-22T12:53:28.906Z,13.77
2022-10-22T12:56:00.281Z,13.77
2022-10-22T12:58:30.061Z,13.76
2022-10-22T13:01:01.973Z,13.76
2022-10-22T13:03:40.428Z,13.78
2022-10-22T13:06:19.137Z,13.77
2022-10-22T13:08:57.211Z,13.76
2022-10-22T13:11:23.862Z,13.75
2022-10-22T13:13:50.457Z,13.72
2022-10-22T13:16:24.360Z,13.69
2022-10-22T13:18:52.597Z,13.69
2022-10-22T13:21:34.246Z,13.65
2022-10-22T13:24:20.943Z,13.60
2022-10-22T13:26:55.932Z,13.56
2022-10-22T13:29:24.104Z,13.55
2022-10-22T13:31:53.221Z,13.52
2022-10-22T13:34:22.759Z,13.51
2022-10-22T13:36:49.515Z,13.49
2022-10-22T13:39:24.077Z,13.47
2022-10-22T13:41:51.907Z,13.46
2022-10-22T13:44:19.648Z,13.44
2022-10-22T13:46:47.711Z,13.40
2022-10-22T13:49:17.805Z,13.38
2022-10-22T13:51:44.718Z,13.36
2022-10-22T13:54:20.994Z,13.38
2022-10-22T13:56:47.596Z,13.34
2022-10-22T13:59:15.346Z,13.30
2022-10-22T14:01:44.955Z,13.30
2022-10-22T14:04:14.805Z,13.22
2022-10-22T14:06:41.511Z,13.17
2022-10-22T14:09:13.902Z,13.19
2022-10-22T14:11:40.768Z,13.18
2022-10-22T14:14:09.165Z,13.16
2022-10-22T14:16:37.436Z,13.17
2022-10-22T14:19:07.390Z,13.15
2022-10-22T14:21:37.232Z,13.16
2022-10-22T14:24:06.048Z,13.13
2022-10-22T14:26:35.228Z,13.12
2022-10-22T14:29:11.081Z,13.10
2022-10-22T14:31:44.145Z,13.07
2022-10-22T14:34:13.944Z,13.07
2022-10-22T14:36:43.477Z,13.10
2022-10-22T14:39:10.242Z,13.05
2022-10-22T14:41:37.483Z,13.08
2022-10-22T14:44:04.274Z,13.10
2022-10-22T14:46:30.940Z,13.06
2022-10-22T14:48:57.516Z,13.08
2022-10-22T14:51:24.147Z,13.10
2022-10-22T14:53:50.879Z,13.07
2022-10-22T14:56:22.744Z,13.05
2022-10-22T14:58:49.881Z,13.09
2022-10-22T15:01:16.750Z,13.09
2022-10-22T15:03:43.378Z,13.10
2022-10-22T15:06:09.990Z,13.07
2022-10-22T15:08:36.642Z,13.06
2022-10-22T15:11:06.505Z,13.05
2022-10-22T15:13:33.802Z,13.02
2022-10-22T15:16:01.218Z,13.04
2022-10-22T15:18:28.607Z,13.05
2022-10-22T15:21:08.328Z,13.02
2022-10-22T15:23:36.601Z,13.04
2022-10-22T15:26:03.179Z,13.03
2022-10-22T15:28:29.737Z,13.00
2022-10-22T15:31:00.475Z,12.97
2022-10-22T15:33:28.952Z,12.93
2022-10-22T15:35:56.925Z,12.95
2022-10-22T15:38:32.514Z,12.96
2022-10-22T15:41:05.568Z,12.98
2022-10-22T15:43:33.356Z,12.97
2022-10-22T15:46:12.607Z,12.98
2022-10-22T15:48:39.782Z,12.95
2022-10-22T15:51:12.922Z,12.93
2022-10-22T15:53:39.799Z,12.95
2022-10-22T15:56:06.642Z,12.98
2022-10-22T15:58:33.485Z,12.96
2022-10-22T16:01:14.402Z,12.92
2022-10-22T16:03:41.842Z,12.85
2022-10-22T16:06:09.289Z,12.73
2022-10-22T16:08:37.095Z,12.63
2022-10-22T16:11:04.896Z,12.52
2022-10-22T16:13:31.607Z,12.41
2022-10-22T16:15:58.187Z,12.31
2022-10-22T16:18:24.893Z,12.23
2022-10-22T16:20:51.490Z,12.24
2022-10-22T16:23:19.071Z,12.21
2022-10-22T16:25:46.406Z,12.16
2022-10-22T16:28:13.597Z,12.04
2022-10-22T16:30:40.355Z,11.92
2022-10-22T16:33:07.659Z,11.84
2022-10-22T16:35:34.275Z,11.74
2022-10-22T16:38:00.826Z,11.67
2022-10-22T16:40:29.136Z,11.55
2022-10-22T16:42:55.706Z,11.48
2022-10-22T16:45:22.280Z,11.42
2022-10-22T16:47:49.243Z,11.39
2022-10-22T16:50:15.913Z,11.33
2022-10-22T16:52:42.501Z,11.26
2022-10-22T16:55:09.437Z,11.21
2022-10-22T16:57:36.041Z,11.11
2022-10-22T17:00:05.169Z,11.02
2022-10-22T17:02:31.802Z,11.01
2022-10-22T17:04:58.434Z,11.10
2022-10-22T17:07:25.019Z,11.02
2022-10-22T17:09:51.595Z,11.00
2022-10-22T17:12:18.164Z,10.95
2022-10-22T17:14:44.764Z,10.93
2022-10-22T17:17:11.316Z,10.88
2022-10-22T17:19:38.878Z,10.79
2022-10-22T17:22:05.696Z,10.72
2022-10-22T17:24:32.282Z,10.70
2022-10-22T17:26:58.918Z,10.64
2022-10-22T17:29:25.528Z,10.61
2022-10-22T17:31:52.613Z,10.57
2022-10-22T17:34:19.174Z,10.48
2022-10-22T17:36:45.909Z,10.45
2022-10-22T17:39:18.346Z,10.41
2022-10-22T17:41:45.903Z,10.32
2022-10-22T17:44:13.544Z,10.27
2022-10-22T17:46:40.183Z,10.25
2022-10-22T17:49:15.228Z,10.16
2022-10-22T17:51:41.811Z,10.13
2022-10-22T17:54:09.989Z,10.02
2022-10-22T17:56:38.802Z,9.91
2022-10-22T17:59:06.375Z,9.86
2022-10-22T18:01:35.836Z,9.90
2022-10-22T18:04:05.243Z,9.91
2022-10-22T18:06:32.335Z,9.86
2022-10-22T18:08:59.185Z,9.85
2022-10-22T18:11:27.671Z,9.81
2022-10-22T18:13:56.887Z,9.83
2022-10-22T18:16:24.607Z,9.75
2022-10-22T18:18:54.139Z,9.73
2022-10-22T18:21:22.317Z,9.78
2022-10-22T18:23:49.027Z,9.85
2022-10-22T18:26:17.882Z,9.83
2022-10-22T18:28:45.218Z,9.93
2022-10-22T18:31:21.706Z,9.85
2022-10-22T18:33:48.741Z,9.83
2022-10-22T18:36:19.146Z,9.77
2022-10-22T18:38:54.403Z,9.77
2022-10-22T18:41:21.896Z,9.66
2022-10-22T18:43:52.962Z,9.63
2022-10-22T18:46:19.949Z,9.55
2022-10-22T18:48:47.081Z,9.52
2022-10-22T18:51:14.681Z,9.53
2022-10-22T18:53:42.392Z,9.48
2022-10-22T18:56:13.207Z,9.50
2022-10-22T18:58:41.375Z,9.42
2022-10-22T19:01:13.322Z,9.40
2022-10-22T19:03:40.086Z,9.35
2022-10-22T19:06:07.066Z,9.32
2022-10-22T19:08:35.926Z,9.32
2022-10-22T19:11:09.853Z,9.23
2022-10-22T19:13:36.917Z,9.20
2022-10-22T19:16:05.749Z,9.17
2022-10-22T19:18:32.443Z,9.14
2022-10-22T19:21:01.349Z,9.10
2022-10-22T19:23:32.289Z,9.10
2022-10-22T19:26:10.013Z,9.05
2022-10-22T19:28:38.214Z,8.95
2022-10-22T19:31:06.426Z,8.97
2022-10-22T19:33:37.446Z,8.96
2022-10-22T19:36:15.067Z,9.06
2022-10-22T19:38:47.266Z,9.01
2022-10-22T19:41:16.262Z,8.95
2022-10-22T19:43:44.406Z,8.88
2022-10-22T19:46:12.230Z,8.77
2022-10-22T19:48:39.422Z,8.69
2022-10-22T19:51:09.371Z,8.63
2022-10-22T19:53:38.359Z,8.60
2022-10-22T19:56:07.323Z,8.59
2022-10-22T19:58:34.600Z,8.61
2022-10-22T20:01:10.348Z,8.59
2022-10-22T20:03:37.742Z,8.54
2022-10-22T20:06:06.341Z,8.59
2022-10-22T20:08:35.985Z,8.67
2022-10-22T20:11:02.886Z,8.69
2022-10-22T20:13:29.557Z,8.87
2022-10-22T20:15:56.875Z,9.16
2022-10-22T20:18:23.491Z,9.06
2022-10-22T20:20:50.131Z,9.00
2022-10-22T20:23:17.036Z,8.97
2022-10-22T20:25:45.836Z,8.98
2022-10-22T20:28:14.505Z,9.00
2022-10-22T20:30:45.437Z,9.10
2022-10-22T20:33:15.180Z,9.08
2022-10-22T20:35:42.238Z,9.13
2022-10-22T20:38:13.499Z,9.18
2022-10-22T20:40:40.406Z,9.17
2022-10-22T20:43:09.538Z,9.13
2022-10-22T20:45:38.389Z,9.18
2022-10-22T20:48:05.474Z,9.16
2022-10-22T20:50:32.620Z,9.23
2022-10-22T20:52:59.361Z,9.17
2022-10-22T20:55:27.176Z,9.17
2022-10-22T20:57:53.848Z,9.14
2022-10-22T21:00:20.700Z,9.16
2022-10-22T21:02:47.317Z,9.05
2022-10-22T21:05:13.902Z,9.00
2022-10-22T21:07:40.906Z,9.00
2022-10-22T21:10:08.094Z,8.85
2022-10-22T21:12:34.742Z,8.94
2022-10-22T21:15:01.380Z,8.88
2022-10-22T21:17:28.013Z,8.85
2022-10-22T21:19:54.559Z,8.89
2022-10-22T21:22:21.138Z,8.81
2022-10-22T21:24:47.696Z,8.85
2022-10-22T21:27:14.331Z,8.94
2022-10-22T21:29:50.424Z,8.87
2022-10-22T21:32:16.987Z,8.92
2022-10-22T21:34:43.632Z,8.92
2022-10-22T21:37:10.311Z,8.97
2022-10-22T21:39:41.165Z,9.01
2022-10-22T21:42:08.822Z,9.04
2022-10-22T21:44:35.445Z,9.13
2022-10-22T21:47:02.773Z,9.17
2022-10-22T21:49:29.337Z,9.21
2022-10-22T21:51:55.991Z,9.15
2022-10-22T21:54:22.543Z,9.17
2022-10-22T21:56:50.108Z,9.22
2022-10-22T21:59:16.705Z,9.19
2022-10-22T22:01:43.312Z,9.25
2022-10-22T22:04:09.927Z,9.27
2022-10-22T22:06:36.499Z,9.26
2022-10-22T22:09:04.242Z,9.25
2022-10-22T22:11:31.383Z,9.19
2022-10-22T22:13:58.394Z,9.05
2022-10-22T22:16:29.761Z,9.12
2022-10-22T22:18:58.764Z,9.12
2022-10-22T22:21:25.391Z,9.13
2022-10-22T22:23:52.279Z,9.08
2022-10-22T22:26:25.402Z,9.18
2022-10-22T22:28:55.563Z,9.19
2022-10-22T22:31:25.486Z,9.26
2022-10-22T22:34:00.146Z,9.28
2022-10-22T22:36:27.131Z,9.27
2022-10-22T22:38:56.132Z,9.34
2022-10-22T22:41:23.400Z,9.35
2022-10-22T22:43:51.004Z,9.38
2022-10-22T22:46:17.646Z,9.36
2022-10-22T22:48:44.431Z,9.19
2022-10-22T22:51:11.488Z,9.22
2022-10-22T22:53:38.125Z,9.28
2022-10-22T22:56:10.854Z,9.29
2022-10-22T22:58:38.813Z,9.27
2022-10-22T23:01:32.107Z,9.18
2022-10-22T23:04:02.761Z,9.15
2022-10-22T23:06:32.250Z,9.13
2022-10-22T23:08:59.668Z,9.12
2022-10-22T23:11:27.821Z,9.08
2022-10-22T23:13:59.945Z,9.06
2022-10-22T23:16:29.702Z,9.05
2022-10-22T23:18:57.291Z,9.12
2022-10-22T23:21:26.845Z,9.08
2022-10-22T23:23:56.898Z,9.05
2022-10-22T23:26:26.389Z,9.06
2022-10-22T23:28:53.023Z,9.06
2022-10-22T23:31:21.606Z,9.02
2022-10-22T23:33:48.859Z,8.96
2022-10-22T23:36:15.759Z,8.97
2022-10-22T23:38:43.373Z,8.89
2022-10-22T23:41:10.477Z,8.86
2022-10-22T23:43:38.326Z,8.82
2022-10-22T23:46:10.365Z,8.73
2022-10-22T23:48:39.239Z,8.63
2022-10-22T23:51:14.243Z,8.47
2022-10-22T23:53:42.499Z,8.29
2022-10-22T23:56:15.402Z,8.13
2022-10-22T23:58:42.864Z,8.04
